Latest Weather Observations for Gatton

IDQ60801

Issued at 2:42 pm EST Monday 18 November 2019 (issued every 10 minutes, with the page automatically refreshed every 10 minutes)

About weather observations | Map of weather stations | Latest weather observations for QLD | Other Formats
Station Details ID: 040082 Name: UNIVERSITY OF QUEENSLAND GATTON Lat: -27.54 Lon: 152.34 Height: 89.0 m
Data from the previous 72 hours. | See also: Recent months at Gatton
Date/Time
EST
Temp
°C
App
Temp
°C
Dew
Point
°C
Rel
Hum
%
Delta-T
°C
Wind Press
QNH
hPa
Press
MSL
hPa
Rain since
9am
mm
Dir  Spd
km/h
Gust
km/h
Spd
kts
Gust
kts
18/02:30pm 29.2 24.9 9.3 29 11.1 ENE 22 33 12 18 - - 0.0
18/02:00pm 30.1 26.9 10.1 29 11.4 NE 17 26 9 14 - - 0.0
18/01:30pm 29.9 27.5 9.9 29 11.3 NNE 13 22 7 12 - - 0.0
18/01:00pm 29.0 25.3 10.2 31 10.6 NE 20 32 11 17 - - 0.0
18/12:30pm 28.9 25.9 10.6 32 10.4 ENE 17 32 9 17 - - 0.0
18/12:00pm 28.5 24.4 10.2 32 10.3 ESE 22 35 12 19 - - 0.0
18/11:30am 29.0 25.8 11.1 33 10.3 E 19 28 10 15 - - 0.0
18/11:00am 27.5 22.8 10.7 35 9.5 ENE 26 56 14 30 - - 0.0
18/10:30am 27.6 24.3 11.6 37 9.2 ENE 20 30 11 16 - - 0.0
18/10:00am 26.6 23.8 11.5 39 8.6 E 17 28 9 15 - - 0.0
18/09:30am 25.4 22.2 11.9 43 7.7 E 20 39 11 21 - - 0.0
18/09:00am 24.1 20.5 11.8 46 7.0 ESE 22 30 12 16 - - 0.0
18/08:30am 23.3 20.0 11.7 48 6.6 E 20 28 11 15 - - 0.0
18/08:00am 23.0 19.4 11.7 49 6.4 E 22 32 12 17 - - 0.0
18/07:30am 22.9 19.4 12.2 51 6.1 E 22 33 12 18 - - 0.0
18/07:00am 22.2 19.8 12.7 55 5.4 ESE 17 24 9 13 - - 0.0
18/06:30am 21.1 18.7 12.5 58 4.9 ESE 17 26 9 14 - - 0.0
18/06:00am 20.3 18.2 12.5 61 4.4 ESE 15 20 8 11 - - 0.0
18/05:30am 18.8 17.4 12.3 66 3.6 E 11 15 6 8 - - 0.0
18/05:00am 18.5 16.9 11.6 64 3.8 E 11 13 6 7 - - 0.0
18/04:30am 19.0 17.0 11.6 62 4.1 ESE 13 17 7 9 - - 0.0
18/04:00am 19.6 17.3 11.6 60 4.4 ESE 15 22 8 12 - - 0.0
18/03:30am 19.9 17.5 11.4 58 4.7 SE 15 20 8 11 - - 0.0
18/03:00am 20.2 17.4 11.4 57 4.9 SE 17 28 9 15 - - 0.0
18/02:30am 20.2 18.3 11.7 58 4.7 SE 13 20 7 11 - - 0.0
18/02:00am 20.5 18.2 11.7 57 4.9 SE 15 24 8 13 - - 0.0
18/01:30am 21.1 17.7 11.4 54 5.4 SE 20 26 11 14 - - 0.0
18/01:00am 21.5 18.3 11.2 52 5.7 SE 19 30 10 16 - - 0.0
18/12:30am 21.7 18.1 11.7 53 5.6 SE 22 33 12 18 - - 0.0
18/12:00am 22.2 19.2 13.8 59 4.9 SSE 22 28 12 15 - - 0.0
 
Date/Time
EST
Temp
°C
App
Temp
°C
Dew
Point
°C
Rel
Hum
%
Delta-T
°C
Wind Press
QNH
hPa
Press
MSL
hPa
Rain since
9am
mm
Dir  Spd
km/h
Gust
km/h
Spd
kts
Gust
kts
17/11:30pm 22.7 19.2 14.5 60 4.8 SE 26 39 14 21 - - 0.0
17/11:00pm 23.1 20.1 14.7 59 5.0 SE 24 35 13 19 - - 0.0
17/10:30pm 23.8 20.6 15.3 59 5.1 SE 26 39 14 21 - - 0.0
17/10:16pm 24.2 20.8 15.7 59 5.2 SE 28 46 15 25 - - 0.0
17/10:00pm 25.0 21.8 16.4 59 5.3 SSE 28 39 15 21 - - 0.0
17/09:30pm 25.4 25.0 18.8 67 4.2 SE 19 32 10 17 - - 0.0
17/09:00pm 25.4 25.2 18.6 66 4.3 SSE 17 24 9 13 - - 0.0
17/08:30pm 25.4 25.3 17.8 62 4.8 SE 15 22 8 12 - - 0.0
17/08:00pm 25.8 25.8 18.0 62 4.9 SSE 15 20 8 11 - - 0.0
17/07:30pm 26.2 27.3 17.0 57 5.7 SSE 7 11 4 6 - - 0.0
17/07:00pm 27.6 28.5 17.5 54 6.4 ESE 9 15 5 8 - - 0.0
17/06:30pm 28.8 28.0 17.0 49 7.4 E 17 20 9 11 - - 0.0
17/06:00pm 30.7 28.5 14.8 38 9.8 ESE 20 28 11 15 - - 0.0
17/05:30pm 35.2 26.8 -2.4 9 17.9 SW 32 43 17 23 - - 0.0
17/05:00pm 36.2 27.9 -1.7 9 18.4 SW 32 43 17 23 - - 0.0
17/04:30pm 36.9 27.9 -2.7 8 19.0 SW 35 48 19 26 - - 0.0
17/04:17pm 36.9 28.1 -1.1 9 18.7 SW 35 54 19 29 - - 0.0
17/04:00pm 37.8 29.1 -0.5 9 19.2 SW 35 56 19 30 - - 0.0
17/03:58pm 37.6 28.5 -0.6 9 19.1 SW 37 56 20 30 - - 0.0
17/03:30pm 38.9 31.2 -3.1 7 20.3 W 28 46 15 25 - - 0.0
17/03:06pm 39.1 31.6 -1.1 8 20.1 W 28 50 15 27 - - 0.0
17/03:00pm 39.4 32.6 0.7 9 19.9 W 26 43 14 23 - - 0.0
17/02:48pm 38.8 29.8 0.3 9 19.6 W 37 56 20 30 - - 0.0
17/02:40pm 38.9 31.9 1.8 10 19.4 WSW 28 46 15 25 - - 0.0
17/02:30pm 38.4 31.5 2.8 11 18.8 WSW 28 44 15 24 - - 0.0
17/02:00pm 39.0 31.9 5.6 13 18.5 W 32 44 17 24 - - 0.0
17/01:42pm 38.1 32.1 7.0 15 17.5 W 28 35 15 19 - - 0.0
17/01:30pm 34.8 35.0 14.7 30 12.5 NW 7 17 4 9 - - 0.0
17/01:00pm 35.5 35.9 16.3 32 12.2 NNE 9 20 5 11 - - 0.0
17/12:30pm 33.5 33.0 15.9 34 11.1 NE 13 20 7 11 - - 0.0
17/12:00pm 33.7 34.0 17.0 37 10.7 E 11 22 6 12 - - 0.0
17/11:30am 32.4 33.5 17.1 40 9.8 N 7 17 4 9 - - 0.0
17/11:00am 31.3 32.1 17.2 42 9.0 NNE 9 19 5 10 - - 0.0
17/10:30am 29.7 30.8 17.2 47 7.9 WSW 7 19 4 10 - - 0.0
17/10:00am 29.6 29.9 17.1 47 7.9 E 11 20 6 11 - - 0.0
17/09:30am 28.2 28.8 16.8 50 7.1 E 9 17 5 9 - - 0.0
17/09:00am 27.0 27.8 16.3 52 6.6 ESE 7 13 4 7 - - 0.0
17/08:30am 26.3 26.5 16.8 56 5.9 E 11 19 6 10 - - 0.0
17/08:00am 24.8 25.1 16.0 58 5.4 NE 9 15 5 8 - - 0.0
17/07:30am 23.8 24.5 15.6 60 5.0 SE 6 11 3 6 - - 0.0
17/07:00am 23.8 24.7 16.1 62 4.7 E 6 11 3 6 - - 0.0
17/06:30am 22.4 23.1 15.7 66 4.0 NE 6 9 3 5 - - 0.0
17/06:00am 21.8 22.6 15.9 69 3.6 NE 6 9 3 5 - - 0.0
17/05:30am 21.6 23.6 15.9 70 3.4 CALM 0 0 0 0 - - 0.0
17/05:00am 21.4 23.4 15.9 71 3.3 CALM 0 7 0 4 - - 0.0
17/04:30am 21.5 22.4 16.0 71 3.3 NE 6 7 3 4 - - 0.0
17/04:00am 21.4 22.2 15.9 71 3.3 E 6 9 3 5 - - 0.0
17/03:30am 21.1 22.5 15.4 70 3.4 ESE 2 7 1 4 - - 0.0
17/03:00am 21.0 21.5 15.5 71 3.3 SE 7 13 4 7 - - 0.0
17/02:30am 20.7 21.1 15.3 71 3.2 ESE 7 11 4 6 - - 0.0
17/02:00am 20.4 21.5 13.6 65 3.9 CALM 0 6 0 3 - - 0.0
17/01:30am 20.9 21.1 14.1 65 4.0 ESE 6 7 3 4 - - 0.0
17/01:00am 22.0 21.4 14.6 63 4.4 ESE 11 15 6 8 - - 0.0
17/12:30am 22.1 21.9 13.7 59 4.9 ESE 7 9 4 5 - - 0.0
17/12:00am 22.8 22.4 14.1 58 5.1 ESE 9 13 5 7 - - 0.0
 
Date/Time
EST
Temp
°C
App
Temp
°C
Dew
Point
°C
Rel
Hum
%
Delta-T
°C
Wind Press
QNH
hPa
Press
MSL
hPa
Rain since
9am
mm
Dir  Spd
km/h
Gust
km/h
Spd
kts
Gust
kts
16/11:30pm 23.6 23.2 14.0 55 5.7 SE 9 13 5 7 - - 0.0
16/11:00pm 24.3 23.8 15.0 56 5.6 SE 11 15 6 8 - - 0.0
16/10:30pm 24.9 25.2 17.1 62 4.9 E 11 17 6 9 - - 0.0
16/10:00pm 25.3 25.4 17.5 62 4.9 ESE 13 20 7 11 - - 0.0
16/09:30pm 25.5 24.4 17.2 60 5.2 SE 19 24 10 13 - - 0.0
16/09:00pm 26.3 24.7 16.0 53 6.3 SE 19 26 10 14 - - 0.0
16/08:30pm 26.9 25.2 16.2 52 6.6 SSE 20 28 11 15 - - 0.0
16/08:00pm 27.6 25.8 15.9 49 7.2 SE 20 30 11 16 - - 0.0
16/07:30pm 28.3 26.7 16.6 49 7.3 SE 20 30 11 16 - - 0.0
16/07:00pm 29.0 27.3 17.2 49 7.5 SE 22 32 12 17 - - 0.0
16/06:30pm 30.7 28.4 16.7 43 8.8 SE 24 33 13 18 - - 0.0
16/06:00pm 32.9 29.0 10.9 26 12.8 E 22 30 12 16 - - 0.0
16/05:30pm 34.1 30.5 10.7 24 13.7 NNE 20 26 11 14 - - 0.0
16/05:00pm 35.5 32.1 9.1 20 15.1 NE 17 24 9 13 - - 0.0
16/04:30pm 38.0 34.6 5.9 14 17.7 SW 13 26 7 14 - - 0.0
16/04:00pm 38.9 33.4 0.3 9 19.7 SW 19 35 10 19 - - 0.0
16/03:30pm 37.9 33.1 2.4 11 18.6 WNW 17 33 9 18 - - 0.0
16/03:00pm 39.2 34.2 3.4 11 19.2 WNW 19 28 10 15 - - 0.0
16/02:30pm 39.2 36.3 4.6 12 18.9 S 9 28 5 15 - - 0.0
16/02:00pm 38.6 33.4 5.3 13 18.3 WSW 22 35 12 19 - - 0.0
16/01:30pm 38.2 33.5 6.0 14 17.8 WSW 20 32 11 17 - - 0.0
16/01:00pm 37.9 32.8 5.8 14 17.7 W 22 39 12 21 - - 0.0
16/12:30pm 37.4 33.7 6.4 15 17.2 NW 15 26 8 14 - - 0.0
16/12:00pm 36.6 31.1 5.8 15 16.9 W 24 37 13 20 - - 0.0
16/11:30am 35.9 32.4 7.0 17 16.1 WSW 15 30 8 16 - - 0.0
16/11:00am 36.9 32.2 7.8 17 16.5 NW 22 33 12 18 - - 0.0
16/10:30am 35.4 31.8 9.7 21 14.9 W 19 46 10 25 - - 0.0
16/10:00am 34.8 32.5 11.9 25 13.7 WSW 15 26 8 14 - - 0.0
16/09:30am 32.7 30.4 11.8 28 12.3 WSW 15 26 8 14 - - 0.0
16/09:00am 31.1 29.7 13.4 34 10.6 W 13 22 7 12 - - 0.0
16/08:30am 29.7 29.5 14.7 40 9.2 W 9 15 5 8 - - 0.0
16/08:00am 27.2 28.4 14.9 47 7.5 SW 2 11 1 6 - - 0.0
16/07:30am 25.1 25.3 13.0 47 7.1 SW 4 7 2 4 - - 0.0
16/07:00am 23.4 22.7 12.1 49 6.4 W 7 11 4 6 - - 0.0
16/06:30am 21.4 19.9 9.0 45 6.6 NW 7 9 4 5 - - 0.0
16/06:00am 19.3 16.6 5.7 41 6.7 W 9 11 5 6 - - 0.0
16/05:30am 17.5 14.3 5.1 44 6.0 W 11 13 6 7 - - 0.0
16/05:00am 16.0 13.0 4.1 45 5.6 W 9 11 5 6 - - 0.0
16/04:30am 17.0 13.8 3.3 40 6.3 W 9 13 5 7 - - 0.0
16/04:00am 17.3 14.5 3.2 39 6.5 WSW 7 15 4 8 - - 0.0
16/03:30am 17.3 13.4 3.2 39 6.5 W 13 15 7 8 - - 0.0
16/03:00am 17.0 13.7 2.6 38 6.6 W 9 11 5 6 - - 0.0
16/02:30am 18.3 14.6 2.2 34 7.4 W 11 15 6 8 - - 0.0
16/02:00am 17.6 14.5 3.5 39 6.6 WSW 9 13 5 7 - - 0.0
16/01:30am 18.1 14.8 4.7 41 6.4 W 11 15 6 8 - - 0.0
16/01:00am 18.8 16.2 7.9 49 5.6 WSW 11 15 6 8 - - 0.0
16/12:30am 20.6 19.6 11.0 54 5.3 W 7 9 4 5 - - 0.0
16/12:00am 22.7 23.3 17.8 74 3.1 S 11 15 6 8 - - 0.0
 
Date/Time
EST
Temp
°C
App
Temp
°C
Dew
Point
°C
Rel
Hum
%
Delta-T
°C
Wind Press
QNH
hPa
Press
MSL
hPa
Rain since
9am
mm
Dir  Spd
km/h
Gust
km/h
Spd
kts
Gust
kts
15/11:30pm 23.4 24.2 18.1 72 3.3 SSE 11 15 6 8 - - 0.0
15/11:00pm 24.0 24.0 18.0 69 3.8 SSE 15 19 8 10 - - 0.0
15/10:30pm 24.1 24.7 17.6 67 4.1 SSE 11 17 6 9 - - 0.0
15/10:00pm 23.9 24.2 14.9 57 5.4 SE 7 11 4 6 - - 0.0
15/09:30pm 22.6 20.9 6.0 34 8.4 E 4 9 2 5 - - 0.0
15/09:00pm 24.5 21.3 3.2 25 10.4 ESE 9 11 5 6 - - 0.0
15/08:30pm 26.4 22.3 2.3 21 11.7 SSE 13 22 7 12 - - 0.0
15/08:00pm 23.5 19.6 -1.4 19 11.1 W 9 11 5 6 - - 0.0
15/07:30pm 26.5 22.9 -2.2 15 12.9 WSW 7 9 4 5 - - 0.0
15/07:00pm 27.0 22.7 -4.8 12 13.7 W 9 11 5 6 - - 0.0
15/06:30pm 30.6 25.6 -4.5 10 15.6 WSW 13 17 7 9 - - 0.0
15/06:00pm 34.0 27.8 -4.9 8 17.7 WSW 19 24 10 13 - - 0.0
15/05:30pm 35.1 29.0 -4.1 8 18.2 WSW 19 24 10 13 - - 0.0
15/05:00pm 36.6 30.0 -6.8 6 19.5 W 20 30 11 16 - - 0.0
15/04:30pm 36.9 29.6 -6.5 6 19.6 W 24 35 13 19 - - 0.0
15/04:00pm 36.8 31.2 -6.6 6 19.6 WNW 15 37 8 20 - - 0.0
15/03:30pm 37.4 30.7 -4.2 7 19.6 W 22 33 12 18 - - 0.0
15/03:00pm 36.7 30.9 -4.7 7 19.2 WNW 17 33 9 18 - - 0.0

Other formats

Comma delimited format used in spreadsheet applications
http://www.bom.gov.au/fwo/IDQ60801/IDQ60801.94562.axf

JavaScript Object Notation format (JSON) in row-major order
http://www.bom.gov.au/fwo/IDQ60801/IDQ60801.94562.json

Data quality

Most of these data are generated automatically and are frequently updated. Quality checks on data are not normally performed. It is possible for incorrect values to appear. Refer to information at About Latest Weather Observations and please check the disclaimer before using these data.